createdAt,value
2022-08-20T00:00:50.488Z,21.75
2022-08-20T00:03:32.661Z,21.85
2022-08-20T00:06:10.206Z,21.35
2022-08-20T00:08:38.288Z,20.13
2022-08-20T00:11:07.937Z,18.48
2022-08-20T00:13:39.919Z,18.70
2022-08-20T00:16:11.326Z,17.73
2022-08-20T00:18:39.993Z,16.48
2022-08-20T00:21:10.794Z,16.02
2022-08-20T00:23:39.951Z,16.70
2022-08-20T00:26:08.231Z,15.52
2022-08-20T00:28:38.476Z,14.48
2022-08-20T00:31:08.643Z,14.77
2022-08-20T00:33:37.360Z,14.77
2022-08-20T00:36:10.345Z,13.35
2022-08-20T00:38:39.200Z,14.70
2022-08-20T00:41:08.946Z,13.55
2022-08-20T00:43:38.149Z,14.35
2022-08-20T00:46:16.099Z,12.93
2022-08-20T00:48:45.276Z,13.90
2022-08-20T00:51:17.100Z,14.63
2022-08-20T00:53:44.957Z,13.57
2022-08-20T00:56:13.241Z,14.00
2022-08-20T00:58:44.931Z,13.00
2022-08-20T01:01:13.382Z,14.00
2022-08-20T01:03:42.526Z,13.20
2022-08-20T01:06:12.036Z,14.48
2022-08-20T01:08:41.235Z,13.45
2022-08-20T01:11:22.609Z,14.73
2022-08-20T01:13:51.133Z,13.43
2022-08-20T01:16:28.166Z,12.77
2022-08-20T01:18:57.778Z,12.43
2022-08-20T01:21:32.215Z,13.32
2022-08-20T01:24:26.397Z,13.18
2022-08-20T01:26:55.184Z,13.90
2022-08-20T01:29:32.108Z,14.00
2022-08-20T01:32:01.581Z,13.50
2022-08-20T01:34:29.482Z,13.50
2022-08-20T01:36:58.098Z,14.95
2022-08-20T01:39:31.844Z,14.07
2022-08-20T01:42:19.672Z,14.10
2022-08-20T01:44:47.610Z,14.43
2022-08-20T01:47:15.961Z,13.48
2022-08-20T01:49:53.876Z,13.60
2022-08-20T01:52:37.109Z,15.50
2022-08-20T01:55:06.077Z,14.38
2022-08-20T01:57:35.135Z,13.25
2022-08-20T02:00:11.075Z,12.38
2022-08-20T02:02:47.995Z,12.10
2022-08-20T02:05:15.754Z,11.75
2022-08-20T02:07:43.045Z,11.50
2022-08-20T02:10:12.263Z,10.88
2022-08-20T02:12:40.184Z,10.93
2022-08-20T02:15:10.573Z,9.85
2022-08-20T02:17:39.773Z,9.80
2022-08-20T02:20:12.084Z,8.93
2022-08-20T02:22:50.152Z,9.55
2022-08-20T02:25:19.293Z,8.73
2022-08-20T02:27:48.953Z,8.52
2022-08-20T02:30:27.814Z,7.90
2022-08-20T02:32:59.333Z,8.18
2022-08-20T02:35:27.253Z,8.25
2022-08-20T02:37:55.274Z,8.80
2022-08-20T02:40:30.081Z,8.45
2022-08-20T02:43:00.052Z,9.32
2022-08-20T02:45:28.159Z,8.93
2022-08-20T02:47:57.153Z,8.52
2022-08-20T02:50:26.186Z,8.75
2022-08-20T02:52:53.430Z,8.85
2022-08-20T02:55:27.461Z,9.95
2022-08-20T02:58:00.350Z,10.07
2022-08-20T03:00:37.906Z,9.73
2022-08-20T03:03:08.579Z,10.88
2022-08-20T03:08:09.193Z,12.05
2022-08-20T03:10:40.305Z,13.60
2022-08-20T03:13:11.396Z,17.02
2022-08-20T03:15:41.605Z,15.75
2022-08-20T03:18:09.193Z,17.75
2022-08-20T03:20:36.688Z,18.58
2022-08-20T03:23:04.772Z,23.10
2022-08-20T03:25:32.259Z,24.15
2022-08-20T03:27:59.533Z,23.30
2022-08-20T03:30:28.568Z,25.90
2022-08-20T03:32:56.513Z,27.23
2022-08-20T03:35:26.712Z,30.00
2022-08-20T03:37:54.620Z,31.50
2022-08-20T03:40:31.580Z,32.75
2022-08-20T03:42:59.411Z,31.73
2022-08-20T03:45:27.959Z,34.05
2022-08-20T03:47:56.298Z,33.92
2022-08-20T03:50:27.042Z,34.28
2022-08-20T03:52:55.148Z,34.08
2022-08-20T03:55:24.655Z,32.15
2022-08-20T03:57:56.009Z,30.13
2022-08-20T04:00:27.139Z,29.65
2022-08-20T04:02:55.454Z,29.63
2022-08-20T04:05:29.528Z,28.35
2022-08-20T04:08:02.849Z,25.23
2022-08-20T04:10:31.924Z,23.67
2022-08-20T04:12:59.292Z,24.02
2022-08-20T04:15:27.205Z,24.40
2022-08-20T04:17:54.629Z,23.20
2022-08-20T04:20:24.149Z,22.92
2022-08-20T04:22:58.959Z,23.42
2022-08-20T04:25:35.789Z,22.35
2022-08-20T04:28:06.791Z,21.60
2022-08-20T04:30:34.707Z,22.20
2022-08-20T04:33:02.019Z,22.38
2022-08-20T04:35:30.118Z,20.67
2022-08-20T04:38:06.987Z,22.95
2022-08-20T04:40:53.402Z,24.80
2022-08-20T04:43:23.079Z,22.40
2022-08-20T04:45:52.113Z,24.08
2022-08-20T04:48:20.958Z,22.95
2022-08-20T04:50:48.032Z,22.52
2022-08-20T04:53:20.701Z,20.83
2022-08-20T04:55:51.361Z,21.38
2022-08-20T04:58:26.484Z,19.83
2022-08-20T05:00:56.287Z,21.20
2022-08-20T05:03:28.977Z,20.48
2022-08-20T05:05:57.093Z,19.02
2022-08-20T05:08:25.992Z,19.77
2022-08-20T05:10:59.878Z,18.25
2022-08-20T05:13:42.978Z,18.15
2022-08-20T05:16:10.392Z,17.33
2022-08-20T05:18:37.527Z,19.75
2022-08-20T05:21:07.842Z,18.13
2022-08-20T05:23:37.633Z,17.33
2022-08-20T05:26:07.667Z,18.58
2022-08-20T05:28:51.238Z,18.50
2022-08-20T05:31:31.271Z,16.38
2022-08-20T05:34:10.403Z,18.05
2022-08-20T05:36:41.141Z,16.55
2022-08-20T05:39:09.861Z,15.80
2022-08-20T05:41:38.573Z,16.73
2022-08-20T05:44:10.138Z,16.77
2022-08-20T05:46:41.649Z,18.38
2022-08-20T05:49:14.043Z,17.00
2022-08-20T05:51:41.520Z,18.48
2022-08-20T05:54:08.629Z,17.98
2022-08-20T05:56:36.204Z,19.08
2022-08-20T05:59:04.978Z,17.58
2022-08-20T06:01:34.251Z,17.38
2022-08-20T06:04:20.471Z,16.15
2022-08-20T06:06:47.928Z,18.00
2022-08-20T06:09:30.622Z,16.52
2022-08-20T06:12:04.608Z,15.73
2022-08-20T06:14:32.725Z,15.38
2022-08-20T06:17:13.275Z,14.88
2022-08-20T06:19:44.264Z,15.27
2022-08-20T06:22:18.558Z,14.85
2022-08-20T06:24:49.030Z,13.40
2022-08-20T06:27:16.755Z,14.15
2022-08-20T06:29:43.894Z,14.40
2022-08-20T06:32:10.994Z,12.73
2022-08-20T06:34:38.145Z,12.82
2022-08-20T06:37:30.802Z,12.38
2022-08-20T06:40:13.167Z,11.32
2022-08-20T06:42:48.172Z,13.38
2022-08-20T06:45:28.394Z,12.40
2022-08-20T06:47:58.726Z,12.02
2022-08-20T06:50:31.368Z,10.80
2022-08-20T06:52:59.936Z,11.65
2022-08-20T06:55:27.230Z,11.10
2022-08-20T06:58:05.785Z,11.02
2022-08-20T07:00:34.317Z,10.75
2022-08-20T07:03:02.065Z,11.48
2022-08-20T07:05:31.476Z,11.60
2022-08-20T07:07:59.540Z,11.00
2022-08-20T07:10:28.781Z,10.18
2022-08-20T07:12:56.403Z,10.18
2022-08-20T07:15:26.061Z,10.93
2022-08-20T07:18:00.706Z,9.45
2022-08-20T07:20:30.438Z,9.88
2022-08-20T07:22:58.113Z,10.27
2022-08-20T07:25:25.524Z,8.68
2022-08-20T07:27:53.124Z,8.75
2022-08-20T07:30:55.879Z,8.13
2022-08-20T07:33:24.300Z,9.02
2022-08-20T07:35:51.753Z,8.45
2022-08-20T07:38:24.679Z,8.27
2022-08-20T07:40:53.758Z,8.13
2022-08-20T07:43:23.342Z,7.75
2022-08-20T07:45:52.217Z,7.28
2022-08-20T07:48:31.079Z,7.63
2022-08-20T07:51:01.427Z,8.13
2022-08-20T07:53:31.227Z,8.18
2022-08-20T07:56:06.095Z,7.93
2022-08-20T07:58:43.390Z,7.95
2022-08-20T08:01:11.851Z,8.45
2022-08-20T08:03:49.045Z,8.07
2022-08-20T08:06:30.232Z,7.75
2022-08-20T08:09:09.482Z,9.10
2022-08-20T08:11:40.369Z,8.65
2022-08-20T08:14:10.310Z,9.07
2022-08-20T08:16:38.687Z,7.90
2022-08-20T08:19:09.302Z,7.50
2022-08-20T08:21:36.514Z,8.48
2022-08-20T08:24:04.043Z,9.15
2022-08-20T08:26:31.666Z,8.13
2022-08-20T08:28:58.787Z,8.13
2022-08-20T08:31:26.362Z,8.65
2022-08-20T08:33:53.475Z,9.05
2022-08-20T08:36:20.757Z,9.38
2022-08-20T08:38:47.845Z,10.00
2022-08-20T08:41:32.234Z,9.68
2022-08-20T08:44:13.182Z,8.43
2022-08-20T08:46:45.914Z,9.73
2022-08-20T08:49:20.081Z,8.07
2022-08-20T08:51:51.923Z,8.82
2022-08-20T08:54:22.148Z,8.38
2022-08-20T08:56:49.684Z,8.43
2022-08-20T08:59:19.536Z,8.63
2022-08-20T09:01:55.574Z,9.82
2022-08-20T09:04:35.117Z,8.40
2022-08-20T09:07:04.562Z,8.25
2022-08-20T09:09:41.649Z,10.05
2022-08-20T09:12:19.142Z,9.27
2022-08-20T09:14:50.689Z,9.40
2022-08-20T09:17:20.864Z,9.07
2022-08-20T09:19:48.282Z,9.98
2022-08-20T09:22:18.419Z,9.07
2022-08-20T09:24:45.530Z,9.13
2022-08-20T09:27:13.034Z,9.88
2022-08-20T09:29:40.858Z,9.45
2022-08-20T09:32:14.471Z,10.38
2022-08-20T09:34:48.470Z,10.50
2022-08-20T09:37:15.809Z,10.32
2022-08-20T09:39:43.582Z,11.60
2022-08-20T09:42:14.319Z,13.57
2022-08-20T09:44:42.511Z,12.57
2022-08-20T09:47:10.397Z,14.27
2022-08-20T09:49:38.536Z,14.82
2022-08-20T09:52:08.332Z,15.07
2022-08-20T09:54:37.763Z,14.48
2022-08-20T09:57:07.633Z,16.35
2022-08-20T09:59:36.084Z,15.90
2022-08-20T10:02:04.016Z,15.70
2022-08-20T10:04:31.241Z,16.05
2022-08-20T10:06:58.325Z,15.70
2022-08-20T10:09:26.396Z,15.68
2022-08-20T10:11:53.480Z,15.80
2022-08-20T10:14:20.693Z,17.10
2022-08-20T10:16:56.070Z,15.05
2022-08-20T10:19:27.607Z,15.80
2022-08-20T10:21:55.006Z,16.10
2022-08-20T10:24:22.320Z,16.85
2022-08-20T10:26:49.607Z,16.20
2022-08-20T10:29:17.469Z,14.57
2022-08-20T10:31:44.527Z,16.35
2022-08-20T10:34:11.679Z,15.90
2022-08-20T10:36:38.722Z,16.08
2022-08-20T10:39:06.279Z,17.00
2022-08-20T10:41:37.190Z,16.42
2022-08-20T10:44:07.697Z,15.48
2022-08-20T10:46:35.197Z,15.48
2022-08-20T10:49:02.757Z,15.32
2022-08-20T10:51:32.343Z,14.60
2022-08-20T10:54:00.533Z,14.60
2022-08-20T10:56:27.623Z,14.95
2022-08-20T10:58:54.820Z,15.38
2022-08-20T11:01:31.614Z,13.02
2022-08-20T11:04:01.211Z,13.98
2022-08-20T11:06:28.324Z,14.02
2022-08-20T11:08:56.917Z,16.00
2022-08-20T11:11:24.306Z,12.93
2022-08-20T11:13:51.551Z,13.18
2022-08-20T11:16:18.668Z,13.32
2022-08-20T11:18:47.722Z,12.68
2022-08-20T11:21:15.702Z,12.68
2022-08-20T11:23:42.844Z,12.65
2022-08-20T11:26:10.394Z,12.00
2022-08-20T11:28:37.501Z,12.07
2022-08-20T11:31:04.591Z,12.10
2022-08-20T11:33:31.786Z,11.15
2022-08-20T11:35:58.823Z,10.63
2022-08-20T11:38:26.269Z,10.70
2022-08-20T11:40:53.357Z,10.20
2022-08-20T11:43:20.569Z,10.10
2022-08-20T11:45:56.621Z,10.63
2022-08-20T11:48:23.990Z,8.75
2022-08-20T11:50:52.054Z,9.35
2022-08-20T11:53:19.262Z,8.25
2022-08-20T11:55:47.784Z,8.45
2022-08-20T11:58:14.967Z,7.63
2022-08-20T12:00:42.540Z,7.15
2022-08-20T12:03:11.964Z,6.68
2022-08-20T12:05:41.372Z,6.55
2022-08-20T12:08:09.365Z,6.38
2022-08-20T12:10:37.370Z,6.50
2022-08-20T12:13:05.692Z,6.85
2022-08-20T12:15:36.680Z,6.07
2022-08-20T12:18:07.936Z,6.43
2022-08-20T12:20:36.901Z,5.43
2022-08-20T12:23:04.938Z,5.63
2022-08-20T12:25:32.429Z,5.28
2022-08-20T12:27:59.759Z,5.38
2022-08-20T12:30:27.050Z,6.15
2022-08-20T12:32:54.239Z,5.53
2022-08-20T12:35:21.434Z,5.65
2022-08-20T12:37:48.720Z,5.35
2022-08-20T12:40:31.809Z,5.88
2022-08-20T12:43:01.172Z,6.72
2022-08-20T12:45:28.935Z,5.55
2022-08-20T12:48:06.081Z,5.75
2022-08-20T12:50:34.298Z,5.85
2022-08-20T12:53:02.874Z,5.72
2022-08-20T12:55:30.870Z,5.25
2022-08-20T12:58:01.375Z,5.18
2022-08-20T13:00:37.961Z,5.80
2022-08-20T13:03:06.615Z,5.32
2022-08-20T13:05:35.089Z,5.68
2022-08-20T13:08:03.134Z,4.80
2022-08-20T13:10:33.266Z,5.43
2022-08-20T13:13:04.203Z,4.40
2022-08-20T13:18:08.692Z,5.72
2022-08-20T13:20:37.389Z,5.53
2022-08-20T13:23:05.611Z,5.03
2022-08-20T13:25:34.342Z,4.97
2022-08-20T13:28:04.817Z,5.50
2022-08-20T13:30:34.715Z,5.10
2022-08-20T13:33:02.517Z,5.63
2022-08-20T13:35:30.138Z,5.55
2022-08-20T13:37:57.243Z,5.72
2022-08-20T13:40:24.623Z,5.80
2022-08-20T13:42:52.107Z,5.78
2022-08-20T13:45:19.308Z,6.15
2022-08-20T13:47:46.727Z,5.97
2022-08-20T13:50:20.009Z,6.93
2022-08-20T13:52:48.310Z,7.38
2022-08-20T13:55:18.917Z,6.60
2022-08-20T13:57:47.043Z,6.35
2022-08-20T14:00:31.035Z,7.00
2022-08-20T14:03:01.645Z,8.10
2022-08-20T14:05:29.435Z,8.55
2022-08-20T14:08:04.138Z,10.55
2022-08-20T14:10:33.102Z,8.95
2022-08-20T14:13:00.558Z,9.23
2022-08-20T14:15:27.648Z,8.85
2022-08-20T14:17:56.806Z,9.93
2022-08-20T14:20:29.330Z,9.60
2022-08-20T14:22:57.466Z,9.13
2022-08-20T14:25:26.193Z,8.57
2022-08-20T14:27:54.365Z,9.55
2022-08-20T14:30:30.664Z,9.73
2022-08-20T14:32:58.591Z,8.77
2022-08-20T14:35:25.888Z,10.70
2022-08-20T14:37:56.729Z,11.27
2022-08-20T14:40:26.260Z,10.90
2022-08-20T14:42:54.966Z,10.05
2022-08-20T14:45:22.853Z,10.77
2022-08-20T14:47:54.203Z,11.50
2022-08-20T14:50:32.338Z,10.05
2022-08-20T14:53:00.583Z,9.60
2022-08-20T14:55:33.458Z,9.90
2022-08-20T14:58:00.798Z,8.90
2022-08-20T15:00:30.498Z,10.43
2022-08-20T15:02:57.935Z,9.68
2022-08-20T15:05:25.256Z,8.75
2022-08-20T15:07:53.881Z,8.77
2022-08-20T15:10:32.506Z,8.40
2022-08-20T15:13:00.480Z,7.93
2022-08-20T15:15:27.891Z,7.50
2022-08-20T15:17:57.805Z,7.38
2022-08-20T15:20:32.718Z,7.35
2022-08-20T15:23:00.149Z,7.10
2022-08-20T15:25:37.041Z,5.35
2022-08-20T15:28:07.578Z,5.40
2022-08-20T15:30:35.487Z,5.03
2022-08-20T15:33:03.153Z,5.68
2022-08-20T15:35:30.450Z,4.85
2022-08-20T15:37:59.348Z,4.85
2022-08-20T15:40:29.428Z,5.03
2022-08-20T15:42:58.725Z,4.88
2022-08-20T15:45:26.504Z,4.55
2022-08-20T15:48:02.975Z,5.45
2022-08-20T15:50:48.233Z,4.60
2022-08-20T15:53:32.992Z,3.80
2022-08-20T15:56:11.541Z,4.22
2022-08-20T15:59:08.152Z,3.47
2022-08-20T16:01:45.646Z,3.63
2022-08-20T16:04:49.880Z,3.45
2022-08-20T16:07:41.575Z,3.47
2022-08-20T16:10:32.023Z,3.47
2022-08-20T16:13:02.349Z,3.30
2022-08-20T16:15:36.311Z,3.58
2022-08-20T16:18:20.638Z,3.92
2022-08-20T16:20:51.636Z,3.38
2022-08-20T16:23:24.329Z,3.40
2022-08-20T16:26:10.840Z,3.58
2022-08-20T16:28:53.166Z,3.00
2022-08-20T16:31:28.248Z,3.67
2022-08-20T16:34:38.901Z,3.92
2022-08-20T16:37:17.609Z,4.35
2022-08-20T16:40:18.864Z,3.55
2022-08-20T16:42:51.419Z,3.17
2022-08-20T16:45:33.821Z,3.75
2022-08-20T16:48:05.375Z,3.38
2022-08-20T16:50:41.156Z,3.30
2022-08-20T16:53:17.455Z,2.85
2022-08-20T16:55:44.838Z,3.40
2022-08-20T16:58:12.025Z,3.50
2022-08-20T17:00:44.762Z,3.92
2022-08-20T17:03:33.598Z,3.40
2022-08-20T17:06:18.406Z,3.28
2022-08-20T17:08:50.494Z,4.43
2022-08-20T17:11:32.767Z,3.60
2022-08-20T17:14:13.294Z,3.58
2022-08-20T17:16:48.192Z,5.25
2022-08-20T17:19:25.500Z,4.30
2022-08-20T17:21:52.660Z,3.58
2022-08-20T17:24:32.455Z,3.20
2022-08-20T17:27:03.421Z,3.55
2022-08-20T17:29:33.817Z,3.60
2022-08-20T17:32:23.597Z,3.58
2022-08-20T17:34:53.264Z,3.53
2022-08-20T17:37:26.284Z,4.15
2022-08-20T17:40:06.549Z,3.35
2022-08-20T17:42:33.747Z,3.17
2022-08-20T17:45:14.144Z,2.80
2022-08-20T17:47:44.034Z,3.25
2022-08-20T17:50:23.591Z,3.08
2022-08-20T17:52:54.029Z,3.80
2022-08-20T17:55:21.334Z,3.50
2022-08-20T17:57:52.179Z,3.55
2022-08-20T18:00:25.891Z,4.00
2022-08-20T18:02:57.746Z,3.72
2022-08-20T18:05:25.342Z,3.60
2022-08-20T18:08:16.672Z,4.30
2022-08-20T18:11:01.065Z,3.50
2022-08-20T18:13:44.859Z,3.47
2022-08-20T18:16:28.781Z,3.83
2022-08-20T18:19:12.314Z,4.55
2022-08-20T18:22:02.533Z,4.53
2022-08-20T18:24:41.543Z,3.60
2022-08-20T18:27:15.234Z,4.25
2022-08-20T18:29:46.671Z,4.20
2022-08-20T18:32:36.684Z,4.05
2022-08-20T18:35:20.781Z,3.80
2022-08-20T18:37:48.816Z,4.05
2022-08-20T18:40:29.541Z,4.38
2022-08-20T18:43:13.232Z,4.15
2022-08-20T18:45:41.358Z,4.35
2022-08-20T18:48:19.859Z,4.40
2022-08-20T18:50:51.163Z,4.00
2022-08-20T18:53:47.611Z,3.95
2022-08-20T18:56:37.675Z,4.13
2022-08-20T18:59:19.102Z,3.83
2022-08-20T19:01:49.184Z,4.47
2022-08-20T19:04:32.829Z,4.07
2022-08-20T19:07:05.921Z,4.03
2022-08-20T19:09:52.267Z,3.92
2022-08-20T19:12:27.391Z,4.30
2022-08-20T19:15:03.544Z,4.68
2022-08-20T19:17:48.689Z,4.85
2022-08-20T19:20:29.660Z,4.70
2022-08-20T19:23:06.887Z,4.45
2022-08-20T19:25:38.601Z,4.22
2022-08-20T19:28:21.550Z,4.78
2022-08-20T19:30:49.402Z,4.55
2022-08-20T19:33:27.786Z,4.68
2022-08-20T19:36:14.309Z,5.50
2022-08-20T19:38:52.460Z,5.32
2022-08-20T19:41:30.955Z,6.07
2022-08-20T19:44:00.852Z,6.05
2022-08-20T19:46:30.625Z,7.07
2022-08-20T19:49:22.095Z,6.82
2022-08-20T19:52:44.521Z,7.50
2022-08-20T19:55:21.779Z,7.72
2022-08-20T19:58:00.836Z,8.15
2022-08-20T20:00:38.688Z,8.48
2022-08-20T20:03:15.474Z,8.40
2022-08-20T20:05:56.561Z,8.32
2022-08-20T20:08:27.325Z,8.23
2022-08-20T20:10:58.378Z,9.10
2022-08-20T20:13:34.398Z,9.57
2022-08-20T20:16:07.326Z,9.63
2022-08-20T20:18:39.277Z,10.38
2022-08-20T20:21:22.100Z,9.93
2022-08-20T20:24:09.225Z,11.15
2022-08-20T20:26:40.585Z,10.38
2022-08-20T20:29:24.353Z,10.75
2022-08-20T20:31:53.394Z,11.30
2022-08-20T20:34:36.345Z,11.85
2022-08-20T20:37:10.460Z,11.18
2022-08-20T20:39:42.138Z,12.43
2022-08-20T20:42:25.075Z,13.43
2022-08-20T20:47:27.252Z,14.27
2022-08-20T20:49:58.700Z,14.95
2022-08-20T20:52:47.499Z,14.48
2022-08-20T20:55:25.845Z,17.75
2022-08-20T20:57:53.937Z,17.58
2022-08-20T21:00:24.829Z,18.23
2022-08-20T21:02:52.568Z,20.88
2022-08-20T21:05:22.662Z,20.77
2022-08-20T21:07:54.759Z,22.63
2022-08-20T21:10:24.866Z,20.55
2022-08-20T21:12:53.329Z,20.40
2022-08-20T21:15:23.417Z,20.13
2022-08-20T21:17:51.467Z,21.45
2022-08-20T21:20:19.770Z,19.52
2022-08-20T21:22:46.912Z,21.02
2022-08-20T21:25:14.375Z,20.42
2022-08-20T21:27:45.958Z,21.08
2022-08-20T21:30:13.902Z,18.88
2022-08-20T21:32:41.459Z,19.52
2022-08-20T21:35:10.638Z,19.48
2022-08-20T21:37:38.843Z,19.92
2022-08-20T21:40:09.044Z,20.67
2022-08-20T21:42:38.722Z,20.05
2022-08-20T21:45:09.085Z,19.05
2022-08-20T21:47:36.646Z,20.83
2022-08-20T21:50:05.573Z,20.75
2022-08-20T21:52:32.857Z,22.30
2022-08-20T21:55:02.763Z,20.92
2022-08-20T21:57:33.445Z,20.00
2022-08-20T22:00:04.315Z,20.25
2022-08-20T22:02:32.364Z,22.45
2022-08-20T22:04:59.945Z,19.17
2022-08-20T22:07:27.125Z,19.92
2022-08-20T22:09:54.277Z,20.52
2022-08-20T22:12:26.746Z,20.90
2022-08-20T22:14:54.765Z,19.48
2022-08-20T22:17:21.998Z,20.33
2022-08-20T22:19:49.175Z,22.00
2022-08-20T22:22:17.747Z,20.67
2022-08-20T22:24:46.381Z,20.52
2022-08-20T22:27:13.861Z,21.10
2022-08-20T22:29:40.944Z,21.05
2022-08-20T22:32:08.161Z,21.08
2022-08-20T22:34:37.589Z,22.48
2022-08-20T22:37:05.253Z,20.40
2022-08-20T22:39:32.623Z,21.55
2022-08-20T22:41:59.891Z,22.58
2022-08-20T22:44:27.090Z,23.10
2022-08-20T22:46:58.905Z,21.75
2022-08-20T22:49:29.283Z,23.85
2022-08-20T22:51:57.386Z,23.45
2022-08-20T22:54:25.194Z,23.40
2022-08-20T22:56:53.266Z,23.75
2022-08-20T22:59:29.488Z,22.42
2022-08-20T23:01:58.378Z,22.67
2022-08-20T23:04:30.283Z,23.27
2022-08-20T23:06:57.680Z,25.00
2022-08-20T23:09:25.721Z,25.77
2022-08-20T23:11:53.278Z,24.98
2022-08-20T23:14:20.890Z,26.65
2022-08-20T23:16:52.040Z,26.73
2022-08-20T23:19:21.857Z,25.83
2022-08-20T23:21:50.292Z,26.25
2022-08-20T23:24:17.813Z,25.38
2022-08-20T23:26:52.588Z,26.15
2022-08-20T23:29:22.225Z,27.63
2022-08-20T23:31:50.151Z,28.33
2022-08-20T23:34:17.747Z,28.48
2022-08-20T23:36:44.939Z,29.20
2022-08-20T23:39:12.915Z,28.60
2022-08-20T23:41:45.427Z,29.30
2022-08-20T23:44:25.083Z,29.48
2022-08-20T23:47:00.890Z,28.92
2022-08-20T23:49:29.232Z,29.73
2022-08-20T23:51:57.885Z,31.52
2022-08-20T23:54:25.141Z,32.03
2022-08-20T23:56:57.058Z,31.88
2022-08-20T23:59:25.470Z,30.88
